Time;durP1;ratioP1;P1;durP2;ratioP2;P2;SDS_P1;SDS_P2;PMS_P1;PMS_P2;Temp;Humidity;BMP_temperature;BMP_pressure;BME280_temperature;BME280_humidity;BME280_pressure;Samples;Min_cycle;Max_cycle;Signal;HPM_P1;HPM_P2
2022/03/01 07:59:33;;;;;;;24.48;15.18;;;;;;;4.75;53.15;102651.66;5322359;27;20392;-80
2022/03/01 08:02:05;;;;;;;;;;;;;;;4.80;53.03;102640.88;5306725;28;20388;-80
2022/03/01 08:04:37;;;;;;;22.52;13.68;;;;;;;4.72;53.20;102641.91;5310908;28;19961;-80
2022/03/01 08:07:09;;;;;;;20.58;13.32;;;;;;;4.80;53.98;102647.22;5316356;28;20089;-75
2022/03/01 08:09:42;;;;;;;21.08;12.93;;;;;;;4.77;53.62;102657.78;5303885;28;20031;-73
2022/03/01 08:12:16;;;;;;;19.15;14.88;;;;;;;4.87;53.99;102657.41;5308030;28;20032;-75
2022/03/01 08:14:48;;;;;;;20.08;14.25;;;;;;;5.03;57.76;102673.50;5318407;28;20530;-73
2022/03/01 08:17:20;;;;;;;18.00;14.30;;;;;;;5.15;54.57;102666.34;5315981;28;20024;-76
2022/03/01 08:19:51;;;;;;;19.05;13.82;;;;;;;5.27;56.88;102661.09;5316654;28;20426;-73
2022/03/01 08:22:22;;;;;;;16.63;13.25;;;;;;;5.25;54.71;102657.69;5300850;28;20024;-72
2022/03/01 08:24:53;;;;;;;18.67;12.43;;;;;;;5.25;54.06;102665.09;5314358;28;20038;-74
2022/03/01 08:27:25;;;;;;;19.83;14.73;;;;;;;5.26;53.81;102661.28;5314398;28;20020;-74
2022/03/01 08:29:56;;;;;;;21.15;14.00;;;;;;;5.34;52.65;102666.56;5315531;28;20458;-81
2022/03/01 08:32:27;;;;;;;22.30;14.20;;;;;;;5.32;52.38;102672.31;5300809;28;20298;-81
2022/03/01 08:34:59;;;;;;;21.58;14.27;;;;;;;5.27;52.62;102674.00;5300706;28;20035;-77
2022/03/01 08:37:30;;;;;;;20.67;13.35;;;;;;;5.35;52.25;102673.78;5307076;28;20035;-79
2022/03/01 08:40:03;;;;;;;17.70;12.95;;;;;;;5.41;52.34;102661.94;5317213;28;20482;-79
2022/03/01 08:42:34;;;;;;;19.95;14.25;;;;;;;5.44;51.87;102678.00;5301064;28;20032;-80
2022/03/01 08:45:07;;;;;;;25.60;17.17;;;;;;;5.48;52.05;102675.72;5302380;28;20473;-80
2022/03/01 08:47:39;;;;;;;19.90;14.45;;;;;;;5.55;52.19;102682.06;5321278;28;20024;-80
2022/03/01 08:50:11;;;;;;;20.38;14.02;;;;;;;5.59;52.51;102681.41;5322040;28;20031;-80
2022/03/01 08:52:42;;;;;;;17.40;13.52;;;;;;;5.66;52.12;102685.00;5302072;28;20402;-80
2022/03/01 08:55:14;;;;;;;19.85;13.93;;;;;;;5.66;52.27;102689.69;5299793;28;20454;-80
2022/03/01 08:57:45;;;;;;;22.27;13.35;;;;;;;5.80;52.40;102696.00;5305842;28;20482;-80
2022/03/01 09:00:17;;;;;;;19.42;15.05;;;;;;;5.88;51.80;102693.06;5321323;28;20032;-79
2022/03/01 09:02:51;;;;;;;30.75;17.92;;;;;;;5.91;52.25;102687.13;5306573;28;20513;-79
2022/03/01 09:05:25;;;;;;;20.90;14.45;;;;;;;6.02;52.01;102703.03;5312190;28;20051;-78
2022/03/01 09:07:56;;;;;;;19.50;14.43;;;;;;;6.06;51.44;102701.53;5315822;28;20101;-80
2022/03/01 09:10:31;;;;;;;19.33;13.68;;;;;;;6.07;51.72;102700.47;5301080;28;20048;-80
2022/03/01 09:13:02;;;;;;;17.75;13.75;;;;;;;6.30;52.40;102704.66;5294077;28;20357;-80
2022/03/01 09:15:34;;;;;;;22.13;16.30;;;;;;;6.23;51.44;102703.84;5289931;28;20086;-80
2022/03/01 09:18:05;;;;;;;18.73;14.18;;;;;;;6.35;51.12;102704.03;5285793;28;20111;-80
2022/03/01 09:20:37;;;;;;;16.98;13.73;;;;;;;6.39;51.28;102695.13;5289372;28;20028;-77
2022/03/01 09:23:08;;;;;;;17.65;13.60;;;;;;;6.44;50.13;102689.81;5305832;28;20035;-82
2022/03/01 09:25:40;;;;;;;20.58;13.85;;;;;;;6.48;50.84;102688.28;5300526;28;20016;-79
2022/03/01 09:28:11;;;;;;;20.00;14.55;;;;;;;6.55;50.12;102693.78;5299019;28;20021;-75
2022/03/01 09:30:44;;;;;;;21.13;13.00;;;;;;;6.50;50.75;102701.88;5288188;28;20069;-80
2022/03/01 09:33:17;;;;;;;18.20;13.52;;;;;;;6.55;50.94;102698.47;5288457;28;20044;-80
2022/03/01 09:35:48;;;;;;;18.90;13.07;;;;;;;6.60;50.44;102695.91;5301116;28;20067;-80
2022/03/01 09:38:20;;;;;;;18.70;15.60;;;;;;;6.66;50.45;102690.34;5402354;22;20049;-79
2022/03/01 09:40:52;;;;;;;59.03;41.28;;;;;;;6.83;51.41;102687.94;5264472;28;20114;-80
2022/03/01 09:43:23;;;;;;;20.35;14.07;;;;;;;6.80;50.25;102684.75;5282577;28;20406;-80
2022/03/01 09:45:55;;;;;;;20.45;14.40;;;;;;;6.84;50.32;102695.13;5278695;28;20128;-81
2022/03/01 09:48:29;;;;;;;21.20;16.45;;;;;;;6.91;49.67;102701.47;5265738;28;20044;-79
2022/03/01 09:51:02;;;;;;;20.75;14.43;;;;;;;6.95;49.51;102711.00;5266768;28;20083;-78
2022/03/01 09:53:35;;;;;;;20.08;14.10;;;;;;;7.00;49.37;102707.56;5264375;28;20112;-82
2022/03/01 09:56:07;;;;;;;20.27;15.05;;;;;;;6.97;49.09;102705.25;5265967;28;20373;-81
2022/03/01 09:58:39;;;;;;;15.77;13.65;;;;;;;7.11;48.68;102708.81;5269087;28;20021;-81
2022/03/01 10:01:10;;;;;;;18.98;15.18;;;;;;;7.13;48.85;102717.69;5285676;28;20360;-80
2022/03/01 10:03:48;;;;;;;17.73;14.23;;;;;;;7.15;48.68;102715.56;5274765;28;20017;-81
2022/03/01 10:06:21;;;;;;;19.65;13.43;;;;;;;7.01;48.71;102719.47;5264236;28;20044;-82
2022/03/01 10:08:54;;;;;;;16.90;13.20;;;;;;;7.10;48.77;102713.47;5264378;28;20029;-81
2022/03/01 10:11:35;;;;;;;31.17;23.92;;;;;;;7.13;49.53;102720.44;5263260;28;20032;-80
2022/03/01 10:14:07;;;;;;;18.52;14.27;;;;;;;7.16;48.11;102723.63;5267596;28;20533;-81
2022/03/01 10:16:44;;;;;;;20.13;13.65;;;;;;;7.19;48.50;102725.94;5274736;28;20029;-81
2022/03/01 10:19:20;;;;;;;15.65;13.70;;;;;;;7.18;47.60;102718.75;5273959;28;20061;-81
2022/03/01 10:22:03;;;;;;;20.50;13.95;;;;;;;7.19;48.28;102712.13;5261726;28;20029;-82
2022/03/01 10:24:34;;;;;;;15.65;12.50;;;;;;;7.24;47.93;102705.13;5263149;28;20021;-80
2022/03/01 10:27:07;;;;;;;17.08;13.02;;;;;;;7.26;47.73;102705.72;5263930;28;20082;-80
2022/03/01 10:29:47;;;;;;;16.98;12.88;;;;;;;7.29;48.18;102706.13;5254765;28;20067;-80
2022/03/01 10:32:19;;;;;;;20.42;14.30;;;;;;;7.33;47.90;102701.00;5262957;28;20445;-80
2022/03/01 10:35:03;;;;;;;19.30;13.18;;;;;;;7.42;47.78;102704.38;5263884;28;20124;-80
2022/03/01 10:37:38;;;;;;;16.40;14.13;;;;;;;7.37;47.49;102697.59;5262996;28;20029;-79
2022/03/01 10:40:20;;;;;;;18.33;15.13;;;;;;;7.45;47.56;102696.47;5251268;28;20032;-80
2022/03/01 10:43:09;;;;;;;19.27;14.90;;;;;;;7.51;47.46;102691.97;5263281;28;20115;-79
2022/03/01 10:45:44;;;;;;;18.02;14.18;;;;;;;7.52;46.99;102700.03;5263296;28;20438;-80
2022/03/01 10:48:42;;;;;;;19.45;14.23;;;;;;;7.67;47.53;102696.94;5261273;28;20099;-80
2022/03/01 10:51:19;;;;;;;18.60;14.00;;;;;;;7.58;46.48;102696.34;5269093;28;20561;-80
2022/03/01 10:53:50;;;;;;;14.73;12.45;;;;;;;7.66;46.64;102699.91;5271936;22;20382;-81
2022/03/01 10:56:34;;;;;;;18.63;12.73;;;;;;;7.71;47.02;102703.69;5283503;28;20109;-82
2022/03/01 10:59:08;;;;;;;17.77;13.95;;;;;;;7.82;46.68;102708.50;5263404;28;20044;-81
2022/03/01 11:01:39;;;;;;;20.00;13.73;;;;;;;7.81;46.96;102708.72;5268903;28;20461;-81
2022/03/01 11:04:13;;;;;;;17.75;13.68;;;;;;;7.94;46.67;102707.75;5340962;22;20206;-81
2022/03/01 11:06:47;;;;;;;20.08;13.25;;;;;;;7.91;47.01;102708.22;5283530;28;20114;-79
2022/03/01 11:09:21;;;;;;;16.67;13.85;;;;;;;7.89;47.48;102710.34;5283104;28;20032;-81
2022/03/01 11:11:54;;;;;;;20.27;13.90;;;;;;;7.95;46.83;102699.25;5284139;28;20479;-83
2022/03/01 11:14:31;;;;;;;17.77;13.15;;;;;;;7.99;47.16;102710.69;5283369;28;20035;-83
2022/03/01 11:17:10;;;;;;;19.17;12.63;;;;;;;7.98;47.28;102709.84;5282892;28;20032;-81
2022/03/01 11:20:00;;;;;;;44.95;33.97;;;;;;;8.07;47.93;102715.91;5283130;28;20062;-79
2022/03/01 11:22:53;;;;;;;18.08;13.68;;;;;;;8.15;47.62;102715.59;5281623;28;20024;-79
2022/03/01 11:25:29;;;;;;;18.88;13.93;;;;;;;8.18;46.85;102714.31;5298565;28;20092;-78
2022/03/01 11:28:09;;;;;;;17.20;14.05;;;;;;;8.22;46.62;102705.34;5277242;28;20056;-76
2022/03/01 11:30:51;;;;;;;18.05;12.57;;;;;;;8.15;46.84;102704.56;5265931;28;20078;-77
2022/03/01 11:33:27;;;;;;;17.35;14.10;;;;;;;7.97;47.12;102707.28;5282483;28;20020;-78
2022/03/01 11:36:02;;;;;;;18.35;13.85;;;;;;;8.19;47.66;102710.50;5282060;28;20110;-77
2022/03/01 11:38:34;;;;;;;20.33;15.02;;;;;;;8.27;47.41;102705.50;5282476;28;20028;-77
2022/03/01 11:41:14;;;;;;;18.15;13.20;;;;;;;8.34;46.92;102701.84;5289244;28;20098;-77
2022/03/01 11:44:00;;;;;;;21.08;15.00;;;;;;;8.41;47.16;102708.13;5274227;28;20025;-78
2022/03/01 11:46:38;;;;;;;;;;;;;;;8.48;47.24;102706.16;5282978;28;20032;-77
2022/03/01 11:49:12;;;;;;;20.73;14.50;;;;;;;8.33;46.97;102689.06;5282936;28;19912;-73
2022/03/01 11:51:47;;;;;;;16.75;13.57;;;;;;;8.42;47.43;102684.97;5281180;28;20035;-73
2022/03/01 11:54:23;;;;;;;;;;;;;;;8.57;48.07;102677.13;5283109;28;20065;-74
2022/03/01 11:56:57;;;;;;;20.77;14.68;;;;;;;8.56;47.12;102678.19;5282041;28;19912;-73
2022/03/01 11:59:28;;;;;;;19.23;13.90;;;;;;;8.60;47.07;102670.28;5300487;28;20032;-78
2022/03/01 12:02:00;;;;;;;21.70;15.32;;;;;;;8.63;46.59;102658.75;5285688;28;20502;-78
2022/03/01 12:04:31;;;;;;;17.92;14.35;;;;;;;8.70;46.20;102662.28;5270952;28;20507;-75
2022/03/01 12:07:03;;;;;;;23.20;15.27;;;;;;;8.71;46.88;102659.25;5282275;28;20101;-77
2022/03/01 12:09:38;;;;;;;17.27;13.80;;;;;;;8.61;47.01;102650.66;5282973;28;20029;-76
2022/03/01 12:12:10;;;;;;;104.97;81.57;;;;;;;8.74;47.18;102646.06;5281730;28;20039;-81
2022/03/01 12:14:52;;;;;;;89.47;72.00;;;;;;;8.77;46.53;102640.91;5285020;28;20616;-81
2022/03/01 12:17:24;;;;;;;20.98;16.80;;;;;;;8.82;46.04;102630.00;5290835;28;20418;-76
2022/03/01 12:19:59;;;;;;;18.23;13.82;;;;;;;8.86;46.82;102627.59;5282365;28;20025;-76
2022/03/01 12:22:31;;;;;;;19.25;15.07;;;;;;;8.91;46.05;102624.97;5281917;28;20029;-76
2022/03/01 12:25:03;;;;;;;17.05;14.05;;;;;;;9.00;45.99;102623.56;5281495;28;20503;-81
2022/03/01 12:27:35;;;;;;;19.33;14.25;;;;;;;9.05;46.27;102620.91;5281229;28;20495;-77
2022/03/01 12:30:07;;;;;;;18.10;13.40;;;;;;;9.14;45.72;102615.88;5283558;28;20033;-83
2022/03/01 12:32:39;;;;;;;18.83;14.70;;;;;;;9.20;47.27;102617.69;5286934;28;20028;-70
2022/03/01 12:35:11;;;;;;;20.35;13.63;;;;;;;9.19;46.76;102613.25;5282014;28;20483;-71
2022/03/01 12:37:42;;;;;;;17.58;14.32;;;;;;;9.13;45.63;102617.81;5282222;28;20033;-69
2022/03/01 12:40:24;;;;;;;17.48;15.32;;;;;;;9.25;45.86;102616.97;5281080;28;20482;-70
2022/03/01 12:43:14;;;;;;;99.60;80.30;;;;;;;9.39;47.11;102626.75;5281818;28;20032;-72
2022/03/01 12:45:47;;;;;;;44.28;33.45;;;;;;;9.35;46.69;102622.78;5284257;28;20037;-70
2022/03/01 12:48:18;;;;;;;18.55;13.90;;;;;;;9.46;46.99;102627.50;5285527;28;20036;-70
2022/03/01 12:50:52;;;;;;;17.17;14.52;;;;;;;9.45;45.15;102628.56;5307009;28;20024;-72
2022/03/01 12:53:27;;;;;;;21.00;14.23;;;;;;;9.47;45.35;102617.25;5293897;28;20102;-71
2022/03/01 12:55:58;;;;;;;20.30;15.65;;;;;;;9.54;45.82;102627.16;5285705;28;20021;-70
2022/03/01 12:58:29;;;;;;;15.82;13.35;;;;;;;9.58;46.03;102631.09;5285622;28;20032;-70
2022/03/01 13:01:07;;;;;;;18.58;14.50;;;;;;;9.71;45.59;102637.50;5284950;28;20039;-70
2022/03/01 13:03:38;;;;;;;17.92;14.00;;;;;;;9.78;46.14;102630.75;5285479;28;20383;-71
2022/03/01 13:06:14;;;;;;;14.73;13.18;;;;;;;9.95;50.66;102635.59;5292077;28;20020;-71
2022/03/01 13:08:50;;;;;;;18.60;15.43;;;;;;;9.91;46.05;102629.66;5300216;28;20495;-71
2022/03/01 13:11:23;;;;;;;16.58;14.13;;;;;;;9.85;44.14;102635.34;5285546;28;20044;-73
2022/03/01 13:13:58;;;;;;;19.98;14.98;;;;;;;9.93;44.51;102626.66;5284355;28;20036;-79
2022/03/01 13:16:33;;;;;;;18.33;14.57;;;;;;;9.93;44.43;102616.41;5286108;28;20021;-83
2022/03/01 13:19:10;;;;;;;22.50;15.65;;;;;;;9.91;44.94;102613.03;5286115;28;20040;-83
2022/03/01 13:21:48;;;;;;;19.95;14.48;;;;;;;9.89;44.96;102615.22;5286145;28;20025;-82
2022/03/01 13:24:26;;;;;;;20.75;15.82;;;;;;;9.93;44.15;102610.88;5303320;28;20028;-83
2022/03/01 13:27:00;;;;;;;16.75;14.18;;;;;;;9.89;44.97;102604.13;5308997;28;20024;-83
2022/03/01 13:29:34;;;;;;;48.45;34.33;;;;;;;9.81;44.86;102596.19;5288670;28;20107;-79
2022/03/01 13:32:20;;;;;;;18.33;14.65;;;;;;;9.93;46.56;102583.16;5284154;28;20067;-76
2022/03/01 13:35:00;;;;;;;24.58;19.52;;;;;;;9.87;45.44;102586.06;5284517;28;20483;-76
2022/03/01 13:37:32;;;;;;;23.20;16.30;;;;;;;9.87;45.74;102588.81;5285459;28;20085;-76
2022/03/01 13:40:04;;;;;;;19.83;15.15;;;;;;;9.94;47.18;102589.53;5291175;28;20465;-75
2022/03/01 13:42:40;;;;;;;19.58;15.05;;;;;;;9.89;45.82;102581.94;5284134;28;20431;-76
2022/03/01 13:45:12;;;;;;;19.70;15.13;;;;;;;9.89;45.90;102587.50;5285173;28;20040;-73
2022/03/01 13:47:44;;;;;;;17.88;14.05;;;;;;;9.94;47.36;102581.22;5285624;28;20077;-74
2022/03/01 13:50:20;;;;;;;21.33;14.50;;;;;;;9.92;46.49;102581.50;5286008;28;20032;-74
2022/03/01 13:52:56;;;;;;;17.85;14.00;;;;;;;9.89;46.19;102581.94;5285645;28;20120;-74
2022/03/01 13:55:27;;;;;;;19.23;13.95;;;;;;;9.90;45.88;102577.28;5285037;28;20475;-74
2022/03/01 13:57:58;;;;;;;18.40;13.38;;;;;;;10.04;49.81;102572.31;5291374;28;20044;-74
2022/03/01 14:00:37;;;;;;;20.05;14.60;;;;;;;9.95;48.29;102578.22;5283669;28;20069;-73
2022/03/01 14:03:17;;;;;;;20.58;15.32;;;;;;;9.86;45.96;102582.44;5283648;28;20390;-74
2022/03/01 14:05:59;;;;;;;20.35;12.93;;;;;;;9.83;45.66;102573.78;5272509;28;20128;-73
2022/03/01 14:08:32;;;;;;;96.90;75.63;;;;;;;9.85;46.03;102571.63;5283441;28;20391;-74
2022/03/01 14:11:12;;;;;;;20.55;15.10;;;;;;;9.84;47.55;102570.75;5279187;28;20032;-74
2022/03/01 14:13:45;;;;;;;22.45;15.75;;;;;;;9.76;47.09;102566.41;5287362;28;20734;-73
2022/03/01 14:16:25;;;;;;;24.63;16.40;;;;;;;9.73;47.29;102566.06;5295721;28;20073;-74
2022/03/01 14:19:03;;;;;;;18.98;14.40;;;;;;;9.76;47.83;102562.81;5279423;28;20089;-74
2022/03/01 14:21:34;;;;;;;21.08;14.43;;;;;;;9.72;47.79;102567.19;5283786;28;20482;-75
2022/03/01 14:24:06;;;;;;;23.02;17.65;;;;;;;9.73;48.34;102566.06;5283489;28;20025;-75
2022/03/01 14:26:37;;;;;;;22.83;16.73;;;;;;;9.75;48.10;102569.47;5284247;28;20094;-75
2022/03/01 14:29:14;;;;;;;19.35;15.30;;;;;;;9.81;49.93;102568.47;5278371;28;20024;-75
2022/03/01 14:31:46;;;;;;;19.67;15.00;;;;;;;9.78;48.67;102558.72;5295913;28;20066;-81
2022/03/01 14:34:18;;;;;;;22.95;15.05;;;;;;;9.79;48.97;102557.66;5296839;28;20047;-79
2022/03/01 14:36:49;;;;;;;24.92;15.07;;;;;;;9.71;48.79;102562.69;5283897;28;20029;-74
2022/03/01 14:39:20;;;;;;;19.95;15.25;;;;;;;9.73;48.26;102557.75;5282863;28;20032;-73
2022/03/01 14:41:55;;;;;;;21.45;15.93;;;;;;;9.77;48.30;102556.22;5283817;28;20031;-72
2022/03/01 14:44:26;;;;;;;23.42;15.48;;;;;;;9.89;50.47;102558.94;5283012;28;20036;-73
2022/03/01 14:46:57;;;;;;;16.67;14.32;;;;;;;9.94;50.13;102553.50;5283126;28;20020;-76
2022/03/01 14:49:29;;;;;;;22.65;15.95;;;;;;;9.74;48.40;102551.13;5289363;28;20025;-75
2022/03/01 14:52:04;;;;;;;20.30;14.60;;;;;;;9.95;49.87;102547.75;5283098;28;20036;-76
2022/03/01 14:54:35;;;;;;;19.60;15.30;;;;;;;9.83;48.59;102555.22;5282465;28;20040;-76
2022/03/01 14:57:06;;;;;;;49.45;43.88;;;;;;;9.82;48.24;102555.44;5280607;28;20028;-76
2022/03/01 14:59:38;;;;;;;23.88;19.35;;;;;;;9.84;49.10;102556.91;5283009;28;20029;-77
2022/03/01 15:02:09;;;;;;;18.75;14.70;;;;;;;9.88;48.66;102548.97;5282680;28;20053;-78
2022/03/01 15:04:42;;;;;;;19.85;16.05;;;;;;;9.86;48.15;102545.59;5284337;28;20520;-76
2022/03/01 15:07:13;;;;;;;20.90;15.60;;;;;;;9.86;48.92;102543.66;5283365;28;20040;-78
2022/03/01 15:09:45;;;;;;;20.75;16.42;;;;;;;9.87;48.95;102539.81;5284135;28;20510;-77
2022/03/01 15:12:16;;;;;;;19.75;15.32;;;;;;;9.92;48.70;102537.16;5285305;28;20028;-77
2022/03/01 15:14:48;;;;;;;20.45;16.02;;;;;;;9.93;49.22;102533.28;5284647;28;20055;-74
2022/03/01 15:17:19;;;;;;;23.50;19.63;;;;;;;9.99;49.32;102532.28;5283175;28;20032;-75
2022/03/01 15:19:50;;;;;;;22.20;16.20;;;;;;;9.94;48.60;102536.88;5282824;28;20028;-76
2022/03/01 15:22:22;;;;;;;17.70;14.35;;;;;;;9.92;48.66;102534.38;5290873;28;20024;-76
2022/03/01 15:24:53;;;;;;;18.00;14.52;;;;;;;10.10;51.56;102535.28;5293446;28;20048;-76
2022/03/01 15:27:24;;;;;;;23.13;15.90;;;;;;;9.91;49.26;102524.34;5280690;28;20021;-75
2022/03/01 15:29:56;;;;;;;17.77;15.20;;;;;;;9.92;49.12;102523.28;5277448;28;20040;-79
2022/03/01 15:32:27;;;;;;;22.65;16.40;;;;;;;9.90;50.64;102519.91;5283233;28;20024;-77
2022/03/01 15:35:02;;;;;;;21.77;17.70;;;;;;;9.89;50.20;102515.44;5281908;28;20021;-77
2022/03/01 15:37:37;;;;;;;20.77;15.68;;;;;;;9.79;50.01;102520.75;5282184;28;20037;-77
2022/03/01 15:40:11;;;;;;;17.73;15.35;;;;;;;9.92;50.44;102526.06;5297874;28;20063;-79
2022/03/01 15:42:42;;;;;;;21.83;14.93;;;;;;;9.93;50.33;102516.66;5303547;28;20135;-78
2022/03/01 15:45:13;;;;;;;19.00;15.48;;;;;;;9.89;49.94;102515.44;5290313;28;20111;-79
2022/03/01 15:47:45;;;;;;;19.48;16.33;;;;;;;9.90;50.17;102511.59;5282920;28;20597;-80
2022/03/01 15:50:22;;;;;;;19.95;16.35;;;;;;;9.91;50.40;102510.50;5284821;28;20024;-79
2022/03/01 15:52:56;;;;;;;16.27;13.25;;;;;;;10.14;52.37;102509.59;5285202;28;20024;-79
2022/03/01 15:55:28;;;;;;;21.33;17.25;;;;;;;10.10;50.15;102513.09;5282932;28;20490;-79
2022/03/01 15:57:59;;;;;;;19.05;16.92;;;;;;;10.01;50.20;102519.03;5282665;28;20028;-78
2022/03/01 16:00:30;;;;;;;24.30;17.33;;;;;;;10.16;49.95;102521.28;5283221;28;20028;-76
2022/03/01 16:03:01;;;;;;;20.45;16.30;;;;;;;10.20;49.75;102511.41;5281832;28;20020;-76
2022/03/01 16:05:39;;;;;;;20.25;17.40;;;;;;;10.21;49.61;102512.22;5281723;28;20040;-74
2022/03/01 16:08:13;;;;;;;19.58;15.45;;;;;;;10.19;49.59;102506.91;5283027;28;20040;-76
2022/03/01 16:10:44;;;;;;;25.17;16.17;;;;;;;10.22;49.14;102505.59;5279931;28;20099;-76
2022/03/01 16:13:16;;;;;;;20.20;16.02;;;;;;;10.19;49.94;102506.09;5290168;28;20116;-76
2022/03/01 16:15:53;;;;;;;20.80;16.30;;;;;;;10.14;49.19;102511.53;5303783;28;20078;-76
2022/03/01 16:18:25;;;;;;;22.05;16.02;;;;;;;10.13;49.50;102524.56;5302547;28;20036;-76
2022/03/01 16:20:56;;;;;;;21.35;17.30;;;;;;;10.14;49.49;102517.91;5291996;28;20024;-76
2022/03/01 16:23:28;;;;;;;20.27;15.23;;;;;;;10.17;50.66;102522.13;5285521;28;20036;-76
2022/03/01 16:26:00;;;;;;;22.00;15.38;;;;;;;10.04;50.14;102519.63;5285381;28;20086;-76
2022/03/01 16:28:32;;;;;;;20.00;16.58;;;;;;;10.00;50.43;102517.34;5283176;28;20025;-77
2022/03/01 16:31:06;;;;;;;22.50;17.48;;;;;;;9.95;50.12;102524.72;5288252;28;20412;-76
2022/03/01 16:33:39;;;;;;;18.02;15.77;;;;;;;10.06;51.25;102523.00;5286455;28;20025;-76
2022/03/01 16:36:10;;;;;;;25.48;18.42;;;;;;;9.96;50.13;102527.25;5285973;28;20016;-75
2022/03/01 16:38:42;;;;;;;21.10;16.67;;;;;;;10.01;50.68;102524.56;5284640;28;20016;-75
2022/03/01 16:41:13;;;;;;;22.75;16.75;;;;;;;9.93;49.77;102532.44;5285378;28;20499;-75
2022/03/01 16:43:45;;;;;;;24.75;18.60;;;;;;;9.93;49.74;102532.44;5285716;28;20028;-76
2022/03/01 16:46:19;;;;;;;22.42;17.40;;;;;;;9.84;50.02;102523.66;5285485;28;20036;-76
2022/03/01 16:48:53;;;;;;;20.17;16.58;;;;;;;9.86;51.94;102521.47;5289222;28;20540;-76
2022/03/01 16:51:25;;;;;;;19.92;16.67;;;;;;;9.83;50.74;102516.44;5285914;28;20045;-76
2022/03/01 16:53:59;;;;;;;22.75;17.67;;;;;;;9.77;51.65;102511.88;5285233;28;20536;-73
2022/03/01 16:56:31;;;;;;;18.88;15.52;;;;;;;9.97;53.00;102515.09;5286654;28;20028;-76
2022/03/01 16:59:04;;;;;;;18.65;15.93;;;;;;;9.93;52.76;102516.66;5286149;28;20111;-74
2022/03/01 17:01:35;;;;;;;25.45;18.85;;;;;;;9.62;51.83;102525.38;5286077;28;20028;-72
2022/03/01 17:04:07;;;;;;;23.00;17.63;;;;;;;9.57;52.03;102528.88;5291716;28;20051;-73
2022/03/01 17:06:38;;;;;;;24.35;17.88;;;;;;;9.47;51.76;102532.25;5284705;28;20032;-71
2022/03/01 17:09:10;;;;;;;24.00;18.52;;;;;;;9.44;52.00;102524.44;5284897;28;20020;-71
2022/03/01 17:11:41;;;;;;;28.67;18.90;;;;;;;9.51;52.20;102519.63;5284456;28;20382;-72
2022/03/01 17:14:13;;;;;;;27.20;19.08;;;;;;;9.49;52.48;102526.47;5284567;28;20024;-71
2022/03/01 17:16:47;;;;;;;27.10;19.25;;;;;;;9.48;52.41;102520.06;5284549;28;20310;-71
2022/03/01 17:19:18;;;;;;;24.70;19.77;;;;;;;9.45;52.53;102525.25;5285380;28;20036;-72
2022/03/01 17:21:50;;;;;;;23.40;18.30;;;;;;;9.39;52.47;102516.00;5279385;28;20021;-73
2022/03/01 17:24:22;;;;;;;24.85;18.20;;;;;;;9.35;52.78;102526.69;5285820;28;20029;-73
2022/03/01 17:26:55;;;;;;;22.75;17.13;;;;;;;9.32;52.44;102527.19;5285640;28;20384;-72
2022/03/01 17:29:27;;;;;;;25.67;18.83;;;;;;;9.28;53.04;102525.13;5284903;28;20031;-72
